createdAt,value
2024-02-20T00:00:26.950Z,101550.25
2024-02-20T00:02:56.809Z,101549.56
2024-02-20T00:05:25.261Z,101550.63
2024-02-20T00:07:56.949Z,101542.09
2024-02-20T00:10:25.748Z,101543.84
2024-02-20T00:12:54.085Z,101548.03
2024-02-20T00:15:22.560Z,101550.44
2024-02-20T00:17:51.249Z,101546.94
2024-02-20T00:20:21.016Z,101545.03
2024-02-20T00:22:49.424Z,101550.44
2024-02-20T00:25:18.712Z,101549.59
2024-02-20T00:27:47.038Z,101541.53
2024-02-20T00:30:15.847Z,101555.88
2024-02-20T00:32:44.468Z,101548.88
2024-02-20T00:35:13.069Z,101540.81
2024-02-20T00:37:42.929Z,101551.78
2024-02-20T00:40:11.975Z,101548.38
2024-02-20T00:42:40.256Z,101541.13
2024-02-20T00:45:09.645Z,101549.19
2024-02-20T00:47:38.011Z,101551.84
2024-02-20T00:50:07.181Z,101562.84
2024-02-20T00:52:35.646Z,101565.78
2024-02-20T00:55:06.971Z,101559.84
2024-02-20T00:57:35.478Z,101561.66
2024-02-20T01:00:04.681Z,101561.88
2024-02-20T01:02:33.041Z,101561.06
2024-02-20T01:05:01.328Z,101556.13
2024-02-20T01:07:29.863Z,101560.81
2024-02-20T01:09:58.264Z,101563.38
2024-02-20T01:12:28.296Z,101566.75
2024-02-20T01:14:57.836Z,101573.28
2024-02-20T01:17:26.352Z,101575.97
2024-02-20T01:19:54.800Z,101576.44
2024-02-20T01:22:23.097Z,101584.91
2024-02-20T01:24:51.480Z,101586.16
2024-02-20T01:27:20.097Z,101574.13
2024-02-20T01:29:50.034Z,101575.47
2024-02-20T01:32:18.335Z,101578.97
2024-02-20T01:34:47.118Z,101577.88
2024-02-20T01:37:15.698Z,101583.94
2024-02-20T01:39:44.048Z,101577.97
2024-02-20T01:42:12.244Z,101588.16
2024-02-20T01:44:41.398Z,101581.13
2024-02-20T01:47:11.089Z,101584.03
2024-02-20T01:49:40.654Z,101587.31
2024-02-20T01:52:14.045Z,101587.25
2024-02-20T01:54:43.233Z,101596.19
2024-02-20T01:57:13.346Z,101591.59
2024-02-20T01:59:42.593Z,101592.84
2024-02-20T02:02:13.854Z,101590.44
2024-02-20T02:04:42.303Z,101598.31
2024-02-20T02:07:10.898Z,101602.56
2024-02-20T02:09:39.281Z,101610.31
2024-02-20T02:12:07.903Z,101609.94
2024-02-20T02:14:36.826Z,101610.66
2024-02-20T02:17:05.274Z,101609.66
2024-02-20T02:19:35.076Z,101611.34
2024-02-20T02:22:03.603Z,101611.47
2024-02-20T02:24:35.209Z,101612.56
2024-02-20T02:27:05.995Z,101623.59
2024-02-20T02:29:34.586Z,101622.94
2024-02-20T02:32:03.997Z,101627.81
2024-02-20T02:34:32.594Z,101624.97
2024-02-20T02:37:01.236Z,101618.66
2024-02-20T02:39:29.427Z,101627.53
2024-02-20T02:42:00.930Z,101628.22
2024-02-20T02:44:30.763Z,101627.53
2024-02-20T02:46:59.656Z,101619.03
2024-02-20T02:49:28.038Z,101635.41
2024-02-20T02:51:56.620Z,101637.34
2024-02-20T02:54:27.056Z,101633.41
2024-02-20T02:56:56.354Z,101642.03
2024-02-20T02:59:24.629Z,101640.84
2024-02-20T03:01:54.636Z,101641.19
2024-02-20T03:04:23.102Z,101644.34
2024-02-20T03:06:51.787Z,101647.50
2024-02-20T03:09:23.207Z,101640.72
2024-02-20T03:11:51.578Z,101646.28
2024-02-20T03:14:23.052Z,101644.22
2024-02-20T03:16:51.482Z,101656.19
2024-02-20T03:19:21.442Z,101652.41
2024-02-20T03:21:50.233Z,101650.97
2024-02-20T03:24:18.548Z,101668.16
2024-02-20T03:26:46.844Z,101663.25
2024-02-20T03:29:15.230Z,101664.78
2024-02-20T03:31:44.163Z,101674.50
2024-02-20T03:34:12.770Z,101687.13
2024-02-20T03:36:42.723Z,101679.84
2024-02-20T03:39:11.914Z,101686.97
2024-02-20T03:41:40.487Z,101689.50
2024-02-20T03:44:08.841Z,101666.25
2024-02-20T03:46:37.301Z,101700.22
2024-02-20T03:49:05.747Z,101693.47
2024-02-20T03:51:34.440Z,101705.88
2024-02-20T03:54:04.067Z,101704.88
2024-02-20T03:56:32.535Z,101711.53
2024-02-20T03:59:00.775Z,101702.59
2024-02-20T04:01:29.154Z,101699.84
2024-02-20T04:03:57.648Z,101710.66
2024-02-20T04:06:26.177Z,101708.59
2024-02-20T04:08:54.486Z,101701.88
2024-02-20T04:11:24.358Z,101713.91
2024-02-20T04:13:52.796Z,101715.09
2024-02-20T04:16:21.220Z,101727.88
2024-02-20T04:18:49.634Z,101720.75
2024-02-20T04:21:18.262Z,101734.03
2024-02-20T04:23:46.681Z,101736.13
2024-02-20T04:26:14.991Z,101738.56
2024-02-20T04:28:44.720Z,101740.44
2024-02-20T04:31:13.024Z,101747.38
2024-02-20T04:33:41.488Z,101747.22
2024-02-20T04:36:10.685Z,101757.09
2024-02-20T04:38:42.020Z,101748.06
2024-02-20T04:41:10.500Z,101754.44
2024-02-20T04:43:40.263Z,101756.69
2024-02-20T04:46:10.533Z,101754.09
2024-02-20T04:48:39.262Z,101757.53
2024-02-20T04:51:07.801Z,101759.94
2024-02-20T04:53:36.159Z,101769.34
2024-02-20T04:56:04.922Z,101765.81
2024-02-20T04:58:33.611Z,101768.16
2024-02-20T05:01:02.251Z,101762.28
2024-02-20T05:03:32.336Z,101767.31
2024-02-20T05:06:00.779Z,101777.91
2024-02-20T05:08:29.285Z,101775.69
2024-02-20T05:10:57.816Z,101774.22
2024-02-20T05:13:26.412Z,101772.19
2024-02-20T05:15:54.866Z,101773.06
2024-02-20T05:18:23.289Z,101774.69
2024-02-20T05:20:53.456Z,101782.84
2024-02-20T05:23:21.869Z,101773.75
2024-02-20T05:25:50.256Z,101773.84
2024-02-20T05:28:19.911Z,101778.41
2024-02-20T05:30:48.230Z,101777.94
2024-02-20T05:33:17.853Z,101765.81
2024-02-20T05:35:46.722Z,101783.34
2024-02-20T05:38:18.252Z,101780.28
2024-02-20T05:40:46.644Z,101788.41
2024-02-20T05:43:15.075Z,101787.38
2024-02-20T05:45:43.608Z,101792.41
2024-02-20T05:48:14.107Z,101775.66
2024-02-20T05:50:42.860Z,101786.44
2024-02-20T05:53:11.507Z,101789.16
2024-02-20T05:55:43.611Z,101795.31
2024-02-20T05:58:11.938Z,101801.41
2024-02-20T06:00:40.687Z,101800.59
2024-02-20T06:03:08.991Z,101799.97
2024-02-20T06:05:37.461Z,101797.53
2024-02-20T06:08:06.504Z,101810.91
2024-02-20T06:10:35.182Z,101812.25
2024-02-20T06:13:05.102Z,101814.09
2024-02-20T06:15:33.469Z,101816.88
2024-02-20T06:18:02.204Z,101806.59
2024-02-20T06:20:31.001Z,101821.16
2024-02-20T06:23:00.903Z,101811.94
2024-02-20T06:25:30.001Z,101817.91
2024-02-20T06:27:59.996Z,101821.34
2024-02-20T06:30:29.978Z,101827.28
2024-02-20T06:32:58.431Z,101833.09
2024-02-20T06:35:26.883Z,101839.41
2024-02-20T06:37:55.561Z,101845.50
2024-02-20T06:40:23.950Z,101850.53
2024-02-20T06:42:52.349Z,101849.41
2024-02-20T06:45:20.586Z,101843.59
2024-02-20T06:47:50.797Z,101852.66
2024-02-20T06:50:19.498Z,101853.34
2024-02-20T06:52:48.352Z,101855.00
2024-02-20T06:55:16.831Z,101856.97
2024-02-20T06:57:45.760Z,101848.59
2024-02-20T07:00:16.714Z,101863.78
2024-02-20T07:02:45.635Z,101852.13
2024-02-20T07:05:16.006Z,101858.41
2024-02-20T07:07:45.641Z,101855.44
2024-02-20T07:10:15.051Z,101848.34
2024-02-20T07:12:43.519Z,101855.31
2024-02-20T07:15:11.926Z,101857.84
2024-02-20T07:17:40.215Z,101853.34
2024-02-20T07:20:10.411Z,101860.22
2024-02-20T07:22:40.429Z,101861.00
2024-02-20T07:25:10.283Z,101857.25
2024-02-20T07:27:38.711Z,101859.50
2024-02-20T07:30:11.552Z,101863.75
2024-02-20T07:32:42.124Z,101862.66
2024-02-20T07:35:13.515Z,101865.47
2024-02-20T07:37:43.912Z,101863.41
2024-02-20T07:40:13.713Z,101855.81
2024-02-20T07:42:42.503Z,101852.53
2024-02-20T07:45:11.686Z,101852.28
2024-02-20T07:47:40.117Z,101845.44
2024-02-20T07:50:09.619Z,101855.34
2024-02-20T07:52:38.172Z,101866.94
2024-02-20T07:55:09.237Z,101860.38
2024-02-20T07:57:37.595Z,101865.44
2024-02-20T08:00:08.025Z,101865.50
2024-02-20T08:02:42.132Z,101863.28
2024-02-20T08:05:13.005Z,101865.53
2024-02-20T08:07:41.816Z,101868.47
2024-02-20T08:10:13.384Z,101869.66
2024-02-20T08:13:42.780Z,101863.28
2024-02-20T08:16:12.763Z,101865.66
2024-02-20T08:18:41.687Z,101869.09
2024-02-20T08:21:11.500Z,101865.53
2024-02-20T08:23:40.284Z,101869.31
2024-02-20T08:26:08.635Z,101868.09
2024-02-20T08:28:42.312Z,101876.81
2024-02-20T08:31:11.523Z,101865.59
2024-02-20T08:33:40.184Z,101868.16
2024-02-20T08:36:09.169Z,101869.63
2024-02-20T08:38:37.450Z,101876.41
2024-02-20T08:41:05.858Z,101881.13
2024-02-20T08:43:34.282Z,101880.41
2024-02-20T08:46:04.390Z,101876.59
2024-02-20T08:48:32.811Z,101875.41
2024-02-20T08:51:01.344Z,101871.50
2024-02-20T08:53:29.615Z,101870.22
2024-02-20T08:55:57.878Z,101862.56
2024-02-20T08:58:26.601Z,101853.66
2024-02-20T09:00:55.766Z,101852.91
2024-02-20T09:03:30.087Z,101843.25
2024-02-20T09:07:24.757Z,101839.28
2024-02-20T09:09:53.267Z,101842.50
2024-02-20T09:12:21.687Z,101843.34
2024-02-20T09:14:50.299Z,101842.94
2024-02-20T09:17:18.629Z,101832.59
2024-02-20T09:19:47.057Z,101841.72
2024-02-20T09:22:16.063Z,101843.06
2024-02-20T09:24:46.799Z,101828.50
2024-02-20T09:27:15.448Z,101832.69
2024-02-20T09:29:44.443Z,101828.81
2024-02-20T09:32:14.454Z,101824.59
2024-02-20T09:34:44.905Z,101826.34
2024-02-20T09:37:13.982Z,101832.44
2024-02-20T09:39:42.445Z,101831.53
2024-02-20T09:42:20.295Z,101828.28
2024-02-20T09:44:50.678Z,101840.03
2024-02-20T09:47:22.236Z,101833.31
2024-02-20T09:49:52.924Z,101824.59
2024-02-20T09:52:22.163Z,101823.28
2024-02-20T09:54:51.705Z,101826.53
2024-02-20T09:57:22.860Z,101835.19
2024-02-20T09:59:51.399Z,101840.44
2024-02-20T10:02:22.426Z,101845.13
2024-02-20T10:04:50.971Z,101844.28
2024-02-20T10:07:21.378Z,101843.38
2024-02-20T10:09:50.083Z,101848.19
2024-02-20T10:12:22.305Z,101835.19
2024-02-20T10:14:50.932Z,101840.09
2024-02-20T10:17:19.974Z,101850.91
2024-02-20T10:19:48.467Z,101846.56
2024-02-20T10:22:25.341Z,101841.25
2024-02-20T10:25:04.621Z,101847.16
2024-02-20T10:27:35.637Z,101833.69
2024-02-20T10:30:05.669Z,101827.34
2024-02-20T10:32:37.341Z,101826.66
2024-02-20T10:35:08.340Z,101832.19
2024-02-20T10:37:37.065Z,101839.88
2024-02-20T10:40:18.187Z,101836.56
2024-02-20T10:42:58.136Z,101839.28
2024-02-20T10:45:27.256Z,101834.97
2024-02-20T10:47:58.603Z,101828.94
2024-02-20T10:50:28.797Z,101838.00
2024-02-20T10:53:02.253Z,101834.53
2024-02-20T10:55:35.083Z,101828.06
2024-02-20T10:58:17.266Z,101830.41
2024-02-20T11:00:47.963Z,101825.84
2024-02-20T11:03:18.232Z,101834.16
2024-02-20T11:05:47.056Z,101833.50
2024-02-20T11:08:16.067Z,101834.34
2024-02-20T11:10:44.646Z,101829.00
2024-02-20T11:13:16.745Z,101814.91
2024-02-20T11:15:45.789Z,101802.00
2024-02-20T11:18:18.607Z,101803.75
2024-02-20T11:20:47.526Z,101801.16
2024-02-20T11:23:16.061Z,101802.41
2024-02-20T11:25:44.824Z,101798.97
2024-02-20T11:28:17.778Z,101802.03
2024-02-20T11:30:47.817Z,101791.25
2024-02-20T11:33:20.534Z,101808.03
2024-02-20T11:35:50.363Z,101800.63
2024-02-20T11:38:23.172Z,101792.72
2024-02-20T11:40:52.215Z,101783.53
2024-02-20T11:43:23.453Z,101790.84
2024-02-20T11:45:59.481Z,101784.78
2024-02-20T11:48:28.168Z,101791.22
2024-02-20T11:50:58.764Z,101789.41
2024-02-20T11:53:28.868Z,101781.84
2024-02-20T11:55:58.011Z,101786.31
2024-02-20T11:58:29.865Z,101790.69
2024-02-20T12:01:05.267Z,101787.75
2024-02-20T12:03:37.034Z,101784.56
2024-02-20T12:06:07.823Z,101776.88
2024-02-20T12:08:42.243Z,101784.34
2024-02-20T12:11:12.913Z,101780.53
2024-02-20T12:13:42.997Z,101774.66
2024-02-20T12:16:20.608Z,101773.84
2024-02-20T12:18:50.043Z,101780.22
2024-02-20T12:21:18.928Z,101768.38
2024-02-20T12:23:55.084Z,101773.63
2024-02-20T12:26:24.168Z,101770.94
2024-02-20T12:28:55.844Z,101777.16
2024-02-20T12:31:26.005Z,101764.78
2024-02-20T12:33:55.648Z,101762.66
2024-02-20T12:36:26.845Z,101756.41
2024-02-20T12:38:55.142Z,101765.34
2024-02-20T12:41:23.679Z,101765.78
2024-02-20T12:43:53.655Z,101769.44
2024-02-20T12:46:22.304Z,101767.38
2024-02-20T12:48:56.052Z,101772.72
2024-02-20T12:51:25.737Z,101764.50
2024-02-20T12:53:54.085Z,101763.22
2024-02-20T12:56:22.451Z,101763.03
2024-02-20T12:58:50.924Z,101765.78
2024-02-20T13:01:20.769Z,101763.06
2024-02-20T13:03:49.118Z,101760.19
2024-02-20T13:06:17.828Z,101749.34
2024-02-20T13:08:46.255Z,101746.53
2024-02-20T13:11:16.909Z,101757.75
2024-02-20T13:13:45.572Z,101740.97
2024-02-20T13:16:14.153Z,101741.28
2024-02-20T13:18:44.030Z,101747.91
2024-02-20T13:21:12.562Z,101740.84
2024-02-20T13:23:40.976Z,101740.97
2024-02-20T13:26:10.146Z,101729.59
2024-02-20T13:28:40.182Z,101750.22
2024-02-20T13:31:08.562Z,101738.66
2024-02-20T13:33:37.435Z,101743.97
2024-02-20T13:36:09.380Z,101731.44
2024-02-20T13:38:41.794Z,101743.31
2024-02-20T13:41:11.187Z,101729.56
2024-02-20T13:43:41.328Z,101726.50
2024-02-20T13:46:09.923Z,101728.38
2024-02-20T13:48:39.212Z,101730.59
2024-02-20T13:51:09.256Z,101733.50
2024-02-20T13:53:37.872Z,101734.50
2024-02-20T13:56:06.861Z,101732.75
2024-02-20T13:58:35.323Z,101725.84
2024-02-20T14:01:04.050Z,101720.19
2024-02-20T14:03:32.531Z,101714.19
2024-02-20T14:06:01.152Z,101703.88
2024-02-20T14:08:31.200Z,101702.81
2024-02-20T14:10:59.908Z,101709.47
2024-02-20T14:13:28.333Z,101716.72
2024-02-20T14:15:57.361Z,101717.84
2024-02-20T14:18:26.069Z,101713.00
2024-02-20T14:20:58.562Z,101720.75
2024-02-20T14:23:27.307Z,101731.97
2024-02-20T14:25:57.473Z,101717.91
2024-02-20T14:28:26.287Z,101711.25
2024-02-20T14:31:02.194Z,101719.66
2024-02-20T14:33:31.733Z,101710.75
2024-02-20T14:36:01.331Z,101709.88
2024-02-20T14:38:30.039Z,101709.09
2024-02-20T14:40:59.892Z,101710.81
2024-02-20T14:43:28.590Z,101700.41
2024-02-20T14:45:58.916Z,101718.09
2024-02-20T14:48:28.627Z,101717.03
2024-02-20T14:50:57.100Z,101707.66
2024-02-20T14:53:25.572Z,101717.69
2024-02-20T14:55:54.084Z,101716.69
2024-02-20T14:58:25.049Z,101708.78
2024-02-20T15:00:53.499Z,101711.03
2024-02-20T15:03:22.611Z,101716.16
2024-02-20T15:05:51.169Z,101705.84
2024-02-20T15:08:19.915Z,101703.75
2024-02-20T15:10:48.501Z,101706.75
2024-02-20T15:13:18.976Z,101709.00
2024-02-20T15:15:50.786Z,101698.53
2024-02-20T15:18:19.464Z,101693.59
2024-02-20T15:20:48.020Z,101697.91
2024-02-20T15:23:17.595Z,101688.66
2024-02-20T15:25:47.834Z,101691.47
2024-02-20T15:28:16.527Z,101694.41
2024-02-20T15:30:48.206Z,101685.50
2024-02-20T15:33:16.703Z,101697.03
2024-02-20T15:35:45.153Z,101688.38
2024-02-20T15:38:16.816Z,101689.22
2024-02-20T15:40:46.861Z,101694.75
2024-02-20T15:43:17.999Z,101690.94
2024-02-20T15:45:48.695Z,101679.75
2024-02-20T15:48:18.416Z,101685.41
2024-02-20T15:50:48.023Z,101697.84
2024-02-20T15:53:17.401Z,101687.72
2024-02-20T15:55:46.401Z,101692.22
2024-02-20T15:58:17.121Z,101698.16
2024-02-20T16:00:46.532Z,101693.41
2024-02-20T16:03:17.288Z,101683.53
2024-02-20T16:05:45.455Z,101686.09
2024-02-20T16:08:16.749Z,101682.47
2024-02-20T16:10:46.661Z,101683.03
2024-02-20T16:13:16.108Z,101675.53
2024-02-20T16:15:44.508Z,101673.81
2024-02-20T16:18:12.871Z,101672.53
2024-02-20T16:20:44.142Z,101673.38
2024-02-20T16:23:12.633Z,101666.59
2024-02-20T16:25:41.279Z,101667.63
2024-02-20T16:28:09.643Z,101672.56
2024-02-20T16:30:37.907Z,101674.47
2024-02-20T16:33:07.512Z,101674.25
2024-02-20T16:35:36.080Z,101675.25
2024-02-20T16:38:06.315Z,101678.19
2024-02-20T16:40:34.752Z,101667.69
2024-02-20T16:43:03.332Z,101667.47
2024-02-20T16:45:32.917Z,101666.16
2024-02-20T16:48:01.746Z,101664.13
2024-02-20T16:50:34.188Z,101657.94
2024-02-20T16:53:05.367Z,101658.03
2024-02-20T16:55:34.132Z,101661.72
2024-02-20T16:58:02.627Z,101657.72
2024-02-20T17:00:31.769Z,101669.03
2024-02-20T17:03:00.539Z,101660.66
2024-02-20T17:05:31.307Z,101662.91
2024-02-20T17:08:01.044Z,101654.13
2024-02-20T17:10:32.567Z,101663.16
2024-02-20T17:13:00.957Z,101656.91
2024-02-20T17:15:29.241Z,101660.59
2024-02-20T17:17:57.529Z,101659.72
2024-02-20T17:20:26.358Z,101657.50
2024-02-20T17:22:55.790Z,101651.44
2024-02-20T17:25:26.304Z,101653.00
2024-02-20T17:28:45.390Z,101653.88
2024-02-20T17:31:20.019Z,101657.06
2024-02-20T17:33:49.399Z,101658.34
2024-02-20T17:36:18.315Z,101646.13
2024-02-20T17:38:46.567Z,101645.75
2024-02-20T17:41:19.048Z,101646.41
2024-02-20T17:43:47.995Z,101646.56
2024-02-20T17:46:17.944Z,101644.72
2024-02-20T17:48:51.426Z,101648.75
2024-02-20T17:51:25.822Z,101658.44
2024-02-20T17:53:54.978Z,101639.97
2024-02-20T17:56:23.435Z,101642.53
2024-02-20T17:58:51.910Z,101644.56
2024-02-20T18:01:22.673Z,101645.53
2024-02-20T18:03:53.983Z,101641.22
2024-02-20T18:06:22.386Z,101639.47
2024-02-20T18:08:50.568Z,101639.72
2024-02-20T18:11:20.772Z,101630.16
2024-02-20T18:13:51.986Z,101636.84
2024-02-20T18:16:21.532Z,101626.38
2024-02-20T18:18:50.125Z,101618.44
2024-02-20T18:21:19.801Z,101623.19
2024-02-20T18:23:48.125Z,101615.53
2024-02-20T18:26:17.559Z,101615.53
2024-02-20T18:28:46.670Z,101612.38
2024-02-20T18:31:15.238Z,101607.66
2024-02-20T18:33:43.897Z,101611.72
2024-02-20T18:36:12.746Z,101614.72
2024-02-20T18:38:42.467Z,101605.63
2024-02-20T18:41:13.316Z,101603.84
2024-02-20T18:43:41.981Z,101593.06
2024-02-20T18:46:10.314Z,101593.34
2024-02-20T18:48:39.291Z,101601.50
2024-02-20T18:51:07.976Z,101595.84
2024-02-20T18:53:36.261Z,101590.53
2024-02-20T18:56:07.063Z,101587.69
2024-02-20T18:58:35.400Z,101581.81
2024-02-20T19:01:03.702Z,101581.22
2024-02-20T19:03:52.281Z,101575.38
2024-02-20T19:06:20.654Z,101574.75
2024-02-20T19:08:48.921Z,101567.06
2024-02-20T19:11:17.808Z,101568.88
2024-02-20T19:13:46.305Z,101574.75
2024-02-20T19:16:16.046Z,101567.44
2024-02-20T19:18:44.554Z,101562.13
2024-02-20T19:21:21.651Z,101557.78
2024-02-20T19:23:52.229Z,101558.88
2024-02-20T19:26:20.859Z,101555.97
2024-02-20T19:28:49.293Z,101549.75
2024-02-20T19:31:18.750Z,101545.56
2024-02-20T19:33:47.912Z,101539.31
2024-02-20T19:36:17.274Z,101542.03
2024-02-20T19:38:48.544Z,101545.56
2024-02-20T19:41:18.376Z,101525.56
2024-02-20T19:43:46.846Z,101536.41
2024-02-20T19:46:15.207Z,101534.47
2024-02-20T19:48:43.845Z,101542.78
2024-02-20T19:51:12.548Z,101539.97
2024-02-20T19:53:40.842Z,101532.91
2024-02-20T19:56:10.845Z,101528.94
2024-02-20T19:58:39.198Z,101528.38
2024-02-20T20:01:08.137Z,101521.78
2024-02-20T20:03:36.617Z,101516.34
2024-02-20T20:06:05.439Z,101516.78
2024-02-20T20:08:34.374Z,101507.44
2024-02-20T20:11:03.834Z,101512.22
2024-02-20T20:13:33.977Z,101508.69
2024-02-20T20:16:02.602Z,101508.16
2024-02-20T20:18:33.147Z,101507.88
2024-02-20T20:21:01.625Z,101495.88
2024-02-20T20:23:31.618Z,101498.84
2024-02-20T20:26:05.164Z,101489.31
2024-02-20T20:28:35.189Z,101505.88
2024-02-20T20:31:03.569Z,101495.56
2024-02-20T20:33:33.389Z,101497.44
2024-02-20T20:36:01.955Z,101485.22
2024-02-20T20:38:31.319Z,101483.69
2024-02-20T20:41:02.008Z,101488.53
2024-02-20T20:43:30.617Z,101476.72
2024-02-20T20:46:01.010Z,101483.88
2024-02-20T20:48:28.490Z,101479.13
2024-02-20T20:50:59.213Z,101472.25
2024-02-20T20:53:27.840Z,101486.63
2024-02-20T20:55:56.321Z,101487.59
2024-02-20T20:58:24.653Z,101483.88
2024-02-20T21:00:53.178Z,101470.34
2024-02-20T21:03:23.037Z,101473.88
2024-02-20T21:05:51.563Z,101471.84
2024-02-20T21:08:20.500Z,101481.59
2024-02-20T21:10:48.921Z,101483.13
2024-02-20T21:13:17.577Z,101474.72
2024-02-20T21:15:45.879Z,101484.38
2024-02-20T21:18:16.016Z,101473.00
2024-02-20T21:20:45.953Z,101474.19
2024-02-20T21:23:16.764Z,101474.41
2024-02-20T21:25:47.310Z,101468.53
2024-02-20T21:28:16.323Z,101472.59
2024-02-20T21:30:45.704Z,101478.13
2024-02-20T21:33:15.048Z,101474.31
2024-02-20T21:35:43.446Z,101474.44
2024-02-20T21:38:13.163Z,101478.88
2024-02-20T21:40:42.697Z,101478.34
2024-02-20T21:43:11.248Z,101471.72
2024-02-20T21:45:39.641Z,101460.78
2024-02-20T21:48:08.902Z,101457.13
2024-02-20T21:51:54.978Z,101463.47
2024-02-20T21:54:23.323Z,101468.19
2024-02-20T21:56:51.621Z,101456.50
2024-02-20T21:59:20.096Z,101456.56
2024-02-20T22:01:49.692Z,101455.50
2024-02-20T22:04:18.294Z,101448.47
2024-02-20T22:06:47.411Z,101462.06
2024-02-20T22:09:17.122Z,101447.66
2024-02-20T22:11:45.453Z,101451.47
2024-02-20T22:14:13.784Z,101445.69
2024-02-20T22:16:42.144Z,101445.31
2024-02-20T22:19:10.970Z,101443.13
2024-02-20T22:21:39.454Z,101428.38
2024-02-20T22:24:08.321Z,101431.72
2024-02-20T22:26:38.045Z,101428.25
2024-02-20T22:29:06.500Z,101428.00
2024-02-20T22:31:34.964Z,101432.13
2024-02-20T22:34:03.388Z,101424.69
2024-02-20T22:36:31.677Z,101427.97
2024-02-20T22:39:00.017Z,101428.88
2024-02-20T22:41:29.137Z,101424.38
2024-02-20T22:43:58.889Z,101424.25
2024-02-20T22:46:27.165Z,101414.34
2024-02-20T22:48:55.552Z,101412.56
2024-02-20T22:51:24.260Z,101409.84
2024-02-20T22:53:52.711Z,101410.91
2024-02-20T22:56:20.986Z,101407.25
2024-02-20T22:58:49.367Z,101413.50
2024-02-20T23:01:19.186Z,101416.53
2024-02-20T23:03:47.957Z,101409.13
2024-02-20T23:06:16.470Z,101407.44
2024-02-20T23:08:44.814Z,101404.28
2024-02-20T23:11:13.666Z,101400.47
2024-02-20T23:13:42.370Z,101403.78
2024-02-20T23:16:10.726Z,101415.09
2024-02-20T23:18:40.389Z,101395.75
2024-02-20T23:21:08.734Z,101390.13
2024-02-20T23:23:37.453Z,101394.41
2024-02-20T23:26:05.911Z,101401.16
2024-02-20T23:28:35.079Z,101398.06
2024-02-20T23:31:04.717Z,101395.25
2024-02-20T23:33:34.391Z,101389.47
2024-02-20T23:36:06.957Z,101394.00
2024-02-20T23:38:35.275Z,101386.25
2024-02-20T23:41:03.597Z,101382.03
2024-02-20T23:43:37.838Z,101382.38
2024-02-20T23:46:06.304Z,101383.00
2024-02-20T23:48:34.777Z,101387.03
2024-02-20T23:51:04.974Z,101379.53
2024-02-20T23:53:33.208Z,101383.34
2024-02-20T23:56:04.336Z,101377.31
2024-02-20T23:58:32.991Z,101372.53
